Time;durP1;ratioP1;P1;durP2;ratioP2;P2;SDS_P1;SDS_P2;PMS_P1;PMS_P2;Temp;Humidity;BMP_temperature;BMP_pressure;BME280_temperature;BME280_humidity;BME280_pressure;Samples;Min_cycle;Max_cycle;Signal;HPM_P1;HPM_P2
2022/03/07 00:00:30;;;;;;;9.88;5.55;;;;;;;0.58;90.76;102964.09;5095489;28;20173;-80
2022/03/07 00:02:56;;;;;;;15.05;6.40;;;;;;;0.57;90.62;102956.28;5094255;28;20105;-79
2022/03/07 00:05:21;;;;;;;12.70;6.30;;;;;;;0.54;91.06;102957.22;5095221;28;20479;-81
2022/03/07 00:07:46;;;;;;;16.40;5.90;;;;;;;0.51;91.32;102955.50;5096310;28;20047;-80
2022/03/07 00:10:12;;;;;;;17.55;6.50;;;;;;;0.47;91.25;102959.03;5097045;28;20039;-79
2022/03/07 00:12:37;;;;;;;15.13;6.25;;;;;;;0.41;91.32;102959.13;5095348;28;20033;-78
2022/03/07 00:15:03;;;;;;;13.00;6.13;;;;;;;0.35;91.08;102964.44;5093985;28;20422;-78
2022/03/07 00:17:29;;;;;;;10.80;6.03;;;;;;;0.27;91.22;102959.31;5094424;28;20036;-81
2022/03/07 00:19:54;;;;;;;10.00;6.47;;;;;;;0.18;91.07;102964.69;5093552;28;20032;-78
2022/03/07 00:22:19;;;;;;;14.23;6.85;;;;;;;0.06;91.13;102963.09;5094106;28;20040;-80
2022/03/07 00:24:45;;;;;;;13.73;6.65;;;;;;;-0.07;91.17;102967.59;5093697;28;20039;-77
2022/03/07 00:27:10;;;;;;;13.15;6.25;;;;;;;-0.17;91.08;102967.72;5076385;28;20024;-79
2022/03/07 00:29:36;;;;;;;12.07;6.22;;;;;;;-0.30;91.24;102965.25;5094103;28;20135;-79
2022/03/07 00:32:01;;;;;;;10.95;5.88;;;;;;;-0.44;91.12;102965.38;5093451;28;20038;-80
2022/03/07 00:34:26;;;;;;;10.77;6.13;;;;;;;-0.59;90.95;102971.63;5094277;28;20020;-80
2022/03/07 00:36:52;;;;;;;12.20;6.65;;;;;;;-0.68;91.27;102970.88;5075103;28;20060;-79
2022/03/07 00:39:17;;;;;;;12.57;6.05;;;;;;;-0.80;91.47;102975.31;5093735;28;20469;-80
2022/03/07 00:41:43;;;;;;;12.75;6.40;;;;;;;-0.89;91.65;102970.16;5093417;28;20028;-78
2022/03/07 00:44:08;;;;;;;11.48;7.00;;;;;;;-0.96;91.56;102971.94;5075338;28;20036;-80
2022/03/07 00:46:33;;;;;;;9.15;5.95;;;;;;;-1.03;91.49;102969.41;5093657;28;20138;-79
2022/03/07 00:48:59;;;;;;;10.48;5.68;;;;;;;-1.11;91.02;102969.47;5092911;28;20078;-79
2022/03/07 00:51:24;;;;;;;12.90;6.15;;;;;;;-1.21;90.79;102973.03;5093522;28;20028;-80
2022/03/07 00:53:50;;;;;;;10.90;5.97;;;;;;;-1.32;91.02;102975.72;5092875;28;20039;-79
2022/03/07 00:56:16;;;;;;;13.25;6.53;;;;;;;-1.42;90.87;102973.16;5093696;28;20035;-79
2022/03/07 00:58:41;;;;;;;8.98;6.05;;;;;;;-1.50;91.04;102980.16;5093159;28;20032;-80
2022/03/07 01:01:06;;;;;;;14.35;6.13;;;;;;;-1.59;90.72;102967.16;5092615;28;20100;-79
2022/03/07 01:03:32;;;;;;;14.68;6.35;;;;;;;-1.66;90.78;102979.38;5093558;28;20036;-80
2022/03/07 01:05:57;;;;;;;13.05;7.32;;;;;;;-1.69;92.09;102979.38;5092734;28;20036;-79
2022/03/07 01:08:23;;;;;;;9.18;6.38;;;;;;;-1.73;91.99;102979.41;5075269;28;20040;-79
2022/03/07 01:10:49;;;;;;;10.68;6.55;;;;;;;-1.79;91.98;102983.78;5092665;28;20465;-79
2022/03/07 01:13:14;;;;;;;11.80;6.60;;;;;;;-1.84;91.45;102982.06;5093278;28;20032;-80
2022/03/07 01:15:39;;;;;;;15.75;7.20;;;;;;;-1.91;91.03;102981.25;5074858;28;20502;-79
2022/03/07 01:18:05;;;;;;;10.80;6.28;;;;;;;-1.97;90.95;102982.13;5092076;28;20039;-80
2022/03/07 01:20:31;;;;;;;11.95;7.00;;;;;;;-2.02;91.30;102986.47;5074958;28;20159;-80
2022/03/07 01:22:57;;;;;;;10.70;6.78;;;;;;;-2.07;92.00;102980.44;5092177;28;20032;-80
2022/03/07 01:25:22;;;;;;;13.52;7.03;;;;;;;-2.09;92.66;102976.06;5092924;28;20032;-80
2022/03/07 01:27:48;;;;;;;11.52;7.53;;;;;;;-2.15;93.08;102983.06;5092303;28;20036;-78
2022/03/07 01:30:13;;;;;;;11.02;6.15;;;;;;;-2.22;92.70;102985.69;5092370;28;20116;-80
2022/03/07 01:32:39;;;;;;;8.77;6.53;;;;;;;-2.32;91.98;102985.69;5092691;28;20028;-79
2022/03/07 01:35:06;;;;;;;10.98;6.85;;;;;;;-2.39;91.83;102990.94;5092208;28;20502;-78
2022/03/07 01:37:31;;;;;;;8.95;5.97;;;;;;;-2.48;91.83;102991.81;5074501;28;20028;-79
2022/03/07 01:39:57;;;;;;;10.70;6.88;;;;;;;-2.52;91.30;102982.28;5093735;28;20034;-82
2022/03/07 01:42:22;;;;;;;10.20;6.30;;;;;;;-2.58;91.11;102984.88;5076517;28;20115;-81
2022/03/07 01:44:47;;;;;;;9.70;6.32;;;;;;;-2.63;91.30;102992.69;5095063;28;20035;-82
2022/03/07 01:47:13;;;;;;;12.48;7.65;;;;;;;-2.69;91.22;102984.88;5076254;28;20039;-82
2022/03/07 01:49:38;;;;;;;14.10;6.72;;;;;;;-2.75;91.51;102988.34;5076841;28;20027;-80
2022/03/07 01:52:04;;;;;;;10.90;6.00;;;;;;;-2.81;91.11;102983.16;5094483;28;20499;-82
2022/03/07 01:54:30;;;;;;;10.95;6.97;;;;;;;-2.87;90.68;102989.22;5094413;28;20038;-81
2022/03/07 01:56:55;;;;;;;7.32;5.38;;;;;;;-2.94;90.23;102984.03;5094563;28;20375;-80
2022/03/07 01:59:25;;;;;;;10.32;6.30;;;;;;;-2.99;90.37;102978.81;5075574;28;20036;-81
2022/03/07 02:01:51;;;;;;;11.38;6.30;;;;;;;-3.03;89.94;102977.06;5094961;28;20119;-81
2022/03/07 02:04:17;;;;;;;9.15;6.25;;;;;;;-3.08;89.47;102977.06;5093975;28;20032;-81
2022/03/07 02:06:44;;;;;;;10.13;5.95;;;;;;;-3.12;89.83;102972.75;5075688;28;20392;-81
2022/03/07 02:09:10;;;;;;;8.60;6.03;;;;;;;-3.19;89.98;102974.47;5094380;28;20115;-82
2022/03/07 02:11:36;;;;;;;10.85;6.38;;;;;;;-3.22;89.22;102973.59;5076862;28;20042;-82
2022/03/07 02:14:20;;;;;;;8.98;6.18;;;;;;;-3.26;89.39;102970.09;5094412;28;20024;-81
2022/03/07 02:16:45;;;;;;;8.57;5.50;;;;;;;-3.26;89.78;102966.66;5094535;28;20035;-81
2022/03/07 02:19:12;;;;;;;10.18;6.03;;;;;;;-3.26;89.82;102966.66;5094139;28;20028;-81
2022/03/07 02:21:46;;;;;;;13.40;6.45;;;;;;;-3.24;90.08;102968.41;5076242;28;20024;-81
2022/03/07 02:24:12;;;;;;;15.07;7.40;;;;;;;-3.19;90.82;102968.41;5076973;28;20375;-81
2022/03/07 02:26:38;;;;;;;9.85;6.13;;;;;;;-3.13;91.16;102965.78;5094745;28;20031;-81
2022/03/07 02:29:03;;;;;;;11.95;6.80;;;;;;;-3.07;91.79;102968.41;5076955;28;20048;-80
2022/03/07 02:31:29;;;;;;;13.38;7.60;;;;;;;-3.00;92.21;102964.06;5077008;28;20032;-81
2022/03/07 02:33:55;;;;;;;11.98;7.28;;;;;;;-2.92;92.65;102962.31;5095220;28;20040;-81
2022/03/07 02:36:20;;;;;;;10.95;6.15;;;;;;;-2.86;92.83;102970.13;5095450;28;20373;-81
2022/03/07 02:38:46;;;;;;;9.65;6.40;;;;;;;-2.78;93.19;102969.25;5095216;28;20036;-82
2022/03/07 02:41:11;;;;;;;15.23;7.15;;;;;;;-2.74;93.71;102963.19;5095213;28;20084;-82
2022/03/07 02:43:37;;;;;;;8.98;6.38;;;;;;;-2.70;94.01;102957.97;5095126;28;20127;-82
2022/03/07 02:46:02;;;;;;;15.13;7.03;;;;;;;-2.65;93.76;102955.34;5094506;28;20025;-82
2022/03/07 02:48:27;;;;;;;8.30;6.32;;;;;;;-2.61;94.37;102953.59;5077296;28;20381;-82
2022/03/07 02:50:53;;;;;;;8.65;6.53;;;;;;;-2.58;94.52;102949.28;5094855;28;20388;-83
2022/03/07 02:53:18;;;;;;;12.57;8.18;;;;;;;-2.53;94.37;102955.31;5095128;28;20062;-82
2022/03/07 02:55:44;;;;;;;16.55;7.35;;;;;;;-2.49;95.19;102953.59;5094663;28;20032;-82
2022/03/07 02:58:10;;;;;;;11.05;7.00;;;;;;;-2.42;95.28;102951.84;5077541;28;20028;-82
2022/03/07 03:00:36;;;;;;;13.43;7.20;;;;;;;-2.36;95.53;102950.09;5062409;28;20028;-83
2022/03/07 03:03:01;;;;;;;10.90;7.55;;;;;;;-2.27;96.28;102948.31;5097505;28;20058;-76
2022/03/07 03:05:27;;;;;;;14.13;7.60;;;;;;;-2.19;96.33;102951.78;5097114;28;20028;-83
2022/03/07 03:07:52;;;;;;;14.55;8.55;;;;;;;-2.13;96.75;102954.38;5096557;28;20032;-82
2022/03/07 03:10:19;;;;;;;13.00;7.78;;;;;;;-2.05;96.88;102947.34;5096490;28;20028;-80
2022/03/07 03:12:46;;;;;;;15.10;8.10;;;;;;;-1.99;97.49;102947.34;5081790;28;20089;-81
2022/03/07 03:15:12;;;;;;;14.27;8.38;;;;;;;-1.90;97.45;102945.56;5099361;28;20088;-81
2022/03/07 03:17:42;;;;;;;13.32;8.18;;;;;;;-1.84;97.83;102946.41;5098323;28;20039;-81
2022/03/07 03:20:12;;;;;;;15.32;8.05;;;;;;;-1.79;97.96;102949.00;5097633;28;20067;-81
2022/03/07 03:22:39;;;;;;;18.65;8.23;;;;;;;-1.73;97.88;102943.75;5097557;28;20039;-81
2022/03/07 03:25:06;;;;;;;18.30;9.50;;;;;;;-1.68;98.03;102939.38;5097026;28;20396;-75
2022/03/07 03:27:32;;;;;;;16.80;8.70;;;;;;;-1.63;98.33;102940.22;5096944;28;20475;-82
2022/03/07 03:29:57;;;;;;;13.30;8.43;;;;;;;-1.58;98.67;102939.31;5097023;28;20097;-82
2022/03/07 03:32:25;;;;;;;18.33;8.48;;;;;;;-1.57;98.33;102935.81;5080367;28;20040;-83
2022/03/07 03:34:51;;;;;;;16.90;8.68;;;;;;;-1.55;98.57;102931.44;5097732;28;20036;-82
2022/03/07 03:37:16;;;;;;;19.42;8.68;;;;;;;-1.55;98.47;102944.50;5097390;28;20036;-82
2022/03/07 03:39:41;;;;;;;19.25;8.35;;;;;;;-1.55;98.57;102940.16;5097288;28;20028;-83
2022/03/07 03:42:07;;;;;;;30.67;10.15;;;;;;;-1.53;98.39;102937.53;5097028;28;20105;-76
2022/03/07 03:44:32;;;;;;;16.50;9.25;;;;;;;-1.53;98.76;102935.78;5097039;28;20035;-82
2022/03/07 03:46:58;;;;;;;22.20;8.52;;;;;;;-1.49;98.64;102931.44;5096800;28;20043;-81
2022/03/07 03:49:23;;;;;;;16.80;9.52;;;;;;;-1.48;98.88;102936.66;5096657;28;20156;-81
2022/03/07 03:51:49;;;;;;;16.15;8.73;;;;;;;-1.46;98.91;102926.19;5097045;28;20089;-81
2022/03/07 03:54:14;;;;;;;15.93;9.63;;;;;;;-1.43;99.02;102934.84;5078870;28;20028;-81
2022/03/07 03:56:40;;;;;;;19.55;9.40;;;;;;;-1.39;99.11;102927.84;5078918;28;20131;-81
2022/03/07 03:59:06;;;;;;;13.30;8.93;;;;;;;-1.35;99.45;102924.34;5096991;28;20036;-82
2022/03/07 04:01:32;;;;;;;18.30;10.48;;;;;;;-1.32;99.45;102936.53;5097004;28;20473;-82
2022/03/07 04:03:57;;;;;;;22.92;10.90;;;;;;;-1.30;99.42;102947.81;5097014;28;20361;-82
2022/03/07 04:06:22;;;;;;;16.42;10.30;;;;;;;-1.29;99.72;102945.19;5097730;28;20035;-82
2022/03/07 04:08:56;;;;;;;15.70;9.20;;;;;;;-1.28;99.29;102936.50;5097210;28;20039;-82
2022/03/07 04:11:21;;;;;;;17.85;9.32;;;;;;;-1.26;99.31;102931.25;5096738;28;20085;-82
2022/03/07 04:13:46;;;;;;;16.40;9.43;;;;;;;-1.23;99.25;102938.22;5097222;28;20116;-82
2022/03/07 04:16:12;;;;;;;20.73;9.25;;;;;;;-1.25;99.50;102928.63;5097213;28;20032;-78
2022/03/07 04:18:38;;;;;;;21.20;9.45;;;;;;;-1.24;99.30;102939.94;5096689;28;20028;-82
2022/03/07 04:21:03;;;;;;;15.38;9.32;;;;;;;-1.28;99.42;102939.09;5096205;28;20028;-82
2022/03/07 04:23:28;;;;;;;18.02;10.05;;;;;;;-1.30;99.35;102930.44;5096611;28;20059;-82
2022/03/07 04:25:54;;;;;;;20.10;10.30;;;;;;;-1.33;99.16;102929.56;5077981;28;20119;-81
2022/03/07 04:28:19;;;;;;;21.85;9.88;;;;;;;-1.36;99.19;102933.06;5095952;28;20563;-81
2022/03/07 04:30:44;;;;;;;14.82;9.85;;;;;;;-1.39;99.22;102935.69;5095792;28;20084;-82
2022/03/07 04:33:11;;;;;;;20.08;10.07;;;;;;;-1.41;99.01;102929.63;5096134;28;20028;-81
2022/03/07 04:35:37;;;;;;;15.88;10.15;;;;;;;-1.42;99.06;102928.78;5077580;28;20392;-81
2022/03/07 04:38:02;;;;;;;21.17;10.35;;;;;;;-1.44;98.54;102930.50;5061091;28;20032;-81
2022/03/07 04:40:28;;;;;;;21.00;10.40;;;;;;;-1.48;98.85;102933.16;5095339;28;20112;-81
2022/03/07 04:42:56;;;;;;;16.83;10.00;;;;;;;-1.53;98.86;102932.31;5095707;28;20039;-81
2022/03/07 04:45:22;;;;;;;20.10;11.05;;;;;;;-1.60;98.81;102932.38;5096429;28;20076;-81
2022/03/07 04:47:48;;;;;;;16.05;11.02;;;;;;;-1.67;98.78;102935.00;5096159;28;20043;-81
2022/03/07 04:50:13;;;;;;;18.15;10.75;;;;;;;-1.75;98.36;102936.78;5077341;28;20028;-74
2022/03/07 04:52:39;;;;;;;21.98;10.77;;;;;;;-1.82;98.31;102933.34;5095119;28;20495;-81
2022/03/07 04:55:05;;;;;;;18.98;10.65;;;;;;;-1.90;98.18;102929.91;5095236;28;20028;-81
2022/03/07 04:57:31;;;;;;;16.92;11.73;;;;;;;-2.03;97.73;102931.69;5095004;28;20055;-81
2022/03/07 04:59:56;;;;;;;18.10;10.82;;;;;;;-2.15;97.86;102935.22;5077450;28;20465;-81
2022/03/07 05:02:21;;;;;;;19.95;11.98;;;;;;;-2.27;97.68;102941.34;5077509;28;20070;-81
2022/03/07 05:04:47;;;;;;;16.48;11.00;;;;;;;-2.38;97.81;102924.88;5094870;28;20028;-81
2022/03/07 05:07:12;;;;;;;22.50;11.15;;;;;;;-2.47;97.92;102927.53;5094932;28;20062;-82
2022/03/07 05:09:38;;;;;;;21.35;11.18;;;;;;;-2.58;97.73;102924.91;5095229;28;20032;-81
2022/03/07 05:12:03;;;;;;;21.73;13.25;;;;;;;-2.65;97.25;102929.28;5094644;28;20060;-81
2022/03/07 05:14:29;;;;;;;21.83;11.18;;;;;;;-2.73;97.59;102923.22;5095179;28;20444;-82
2022/03/07 05:16:54;;;;;;;19.45;10.75;;;;;;;-2.81;97.53;102922.38;5094760;28;20032;-82
2022/03/07 05:19:20;;;;;;;18.45;11.52;;;;;;;-2.89;96.99;102931.06;5094646;28;20463;-75
2022/03/07 05:21:45;;;;;;;18.02;11.38;;;;;;;-3.01;96.67;102934.53;5095130;28;20111;-80
2022/03/07 05:24:11;;;;;;;20.52;10.40;;;;;;;-3.10;96.50;102936.28;5095402;28;20028;-80
2022/03/07 05:26:36;;;;;;;14.38;10.63;;;;;;;-3.19;95.88;102932.78;5095267;28;20039;-81
2022/03/07 05:29:03;;;;;;;17.92;10.50;;;;;;;-3.25;96.50;102930.19;5094518;28;20464;-80
2022/03/07 05:31:29;;;;;;;17.35;10.05;;;;;;;-3.33;95.89;102938.84;5094508;28;20361;-81
2022/03/07 05:33:55;;;;;;;15.85;9.70;;;;;;;-3.40;95.58;102928.44;5094033;28;20036;-81
2022/03/07 05:36:21;;;;;;;19.17;11.18;;;;;;;-3.43;95.95;102932.78;5076561;28;20094;-75
2022/03/07 05:38:47;;;;;;;14.45;9.80;;;;;;;-3.48;96.09;102937.97;5095167;28;20444;-82
2022/03/07 05:41:13;;;;;;;16.48;10.32;;;;;;;-3.55;95.58;102939.69;5094728;28;20063;-81
2022/03/07 05:43:38;;;;;;;19.13;11.85;;;;;;;-3.61;95.41;102934.47;5094741;28;20440;-81
2022/03/07 05:46:06;;;;;;;17.60;10.43;;;;;;;-3.66;95.36;102944.00;5094437;28;20056;-81
2022/03/07 05:48:31;;;;;;;15.73;10.27;;;;;;;-3.70;95.19;102936.19;5094784;28;20123;-81
2022/03/07 05:50:56;;;;;;;19.85;9.88;;;;;;;-3.74;94.90;102938.78;5094647;28;20056;-80
2022/03/07 05:53:23;;;;;;;19.40;11.18;;;;;;;-3.78;95.27;102939.63;5095002;28;20452;-75
2022/03/07 05:55:49;;;;;;;17.73;10.00;;;;;;;-3.82;94.73;102948.31;5094726;28;20032;-80
2022/03/07 05:58:15;;;;;;;14.38;10.38;;;;;;;-3.86;94.75;102950.88;5094776;28;20024;-81
2022/03/07 06:00:41;;;;;;;18.13;9.55;;;;;;;-3.90;94.48;102958.69;5060921;28;20043;-81
2022/03/07 06:03:06;;;;;;;19.95;9.90;;;;;;;-3.94;94.37;102964.72;5097268;28;20059;-82
2022/03/07 06:05:32;;;;;;;16.08;9.50;;;;;;;-3.98;94.43;102962.13;5097327;28;20085;-81
2022/03/07 06:07:58;;;;;;;17.30;10.15;;;;;;;-4.01;94.01;102970.75;5096188;28;20059;-82
2022/03/07 06:10:24;;;;;;;19.58;10.10;;;;;;;-4.05;94.03;102971.59;5077606;28;20036;-76
2022/03/07 06:12:49;;;;;;;19.27;10.63;;;;;;;-4.09;93.99;102978.53;5094944;28;20036;-87
2022/03/07 06:15:14;;;;;;;12.82;9.70;;;;;;;-4.12;93.45;102969.84;5078392;28;20410;-87
2022/03/07 06:17:58;;;;;;;16.48;10.23;;;;;;;-4.15;93.01;102970.72;5077153;28;20472;-86
2022/03/07 06:20:24;;;;;;;18.15;9.55;;;;;;;-4.16;93.46;102970.69;5094052;28;20353;-79
2022/03/07 06:22:50;;;;;;;14.50;9.77;;;;;;;-4.16;93.09;102976.75;5075628;28;20032;-81
2022/03/07 06:25:16;;;;;;;20.23;11.65;;;;;;;-4.17;92.62;102972.41;5093866;28;20124;-84
2022/03/07 06:27:41;;;;;;;16.27;10.27;;;;;;;-4.17;92.76;102987.16;5075752;28;20126;-80
2022/03/07 06:30:08;;;;;;;16.73;10.65;;;;;;;-4.18;92.89;102978.50;5093427;28;20040;-79
2022/03/07 06:32:34;;;;;;;19.02;10.65;;;;;;;-4.17;93.69;102976.75;5094068;28;20039;-79
2022/03/07 06:35:00;;;;;;;16.85;11.55;;;;;;;-4.14;94.04;102980.22;5093776;28;20085;-78
2022/03/07 06:37:26;;;;;;;13.85;9.93;;;;;;;-4.11;93.97;102989.78;5093092;28;20490;-77
2022/03/07 06:39:51;;;;;;;13.82;9.50;;;;;;;-4.10;93.83;102988.94;5093726;28;20441;-78
2022/03/07 06:42:17;;;;;;;15.35;10.05;;;;;;;-4.09;93.77;102985.44;5075261;28;20407;-78
2022/03/07 06:44:42;;;;;;;14.45;10.55;;;;;;;-4.08;93.10;102989.78;5095422;28;20096;-78
2022/03/07 06:47:08;;;;;;;16.15;10.13;;;;;;;-4.05;93.58;102986.34;5097337;28;20314;-79
2022/03/07 06:49:33;;;;;;;15.35;9.95;;;;;;;-4.03;93.83;102985.50;5079778;28;20032;-79
2022/03/07 06:51:59;;;;;;;15.73;10.40;;;;;;;-4.00;94.04;102992.44;5063995;28;20032;-83
2022/03/07 06:54:24;;;;;;;23.13;11.40;;;;;;;-3.97;94.06;102990.72;5097972;28;20038;-79
2022/03/07 06:56:50;;;;;;;20.70;11.32;;;;;;;-3.93;94.64;102995.06;5098337;28;20034;-84
2022/03/07 06:59:15;;;;;;;18.30;10.30;;;;;;;-3.86;94.99;102992.50;5079640;28;20114;-85
2022/03/07 07:01:41;;;;;;;18.20;12.30;;;;;;;-3.81;95.18;102994.25;5098601;28;20414;-83
2022/03/07 07:04:06;;;;;;;19.63;11.32;;;;;;;-3.72;95.54;103003.81;5097643;28;20540;-81
2022/03/07 07:06:32;;;;;;;15.38;11.00;;;;;;;-3.64;96.01;103002.13;5097803;28;20531;-76
2022/03/07 07:08:57;;;;;;;15.50;10.48;;;;;;;-3.57;96.37;103001.28;5097272;28;20028;-82
2022/03/07 07:11:22;;;;;;;19.98;11.77;;;;;;;-3.47;96.50;102994.38;5096946;28;20365;-81
2022/03/07 07:13:48;;;;;;;20.55;12.52;;;;;;;-3.37;96.49;103000.47;5097018;28;20118;-81
2022/03/07 07:16:13;;;;;;;19.15;12.90;;;;;;;-3.27;96.53;102997.03;5097354;28;20487;-82
2022/03/07 07:18:39;;;;;;;20.10;11.55;;;;;;;-3.14;96.63;102994.44;5097130;28;20070;-82
2022/03/07 07:21:05;;;;;;;23.15;12.07;;;;;;;-3.04;96.83;102990.97;5097077;28;20380;-77
2022/03/07 07:23:30;;;;;;;21.73;12.63;;;;;;;-2.90;97.07;102998.78;5097312;28;20035;-79
2022/03/07 07:25:56;;;;;;;21.08;11.93;;;;;;;-2.75;97.13;103004.00;5096838;28;20098;-79
2022/03/07 07:28:21;;;;;;;19.88;12.68;;;;;;;-2.58;97.30;103006.63;5097217;28;20036;-80
2022/03/07 07:30:47;;;;;;;17.65;11.20;;;;;;;-2.42;97.50;103001.38;5097570;28;20052;-81
2022/03/07 07:33:13;;;;;;;22.30;12.98;;;;;;;-2.27;97.31;103001.34;5097602;28;20063;-81
2022/03/07 07:35:39;;;;;;;21.70;13.48;;;;;;;-2.15;97.64;103000.44;5078972;28;20165;-79
2022/03/07 07:38:05;;;;;;;19.02;12.02;;;;;;;-2.01;97.32;103003.03;5079129;28;20436;-82
2022/03/07 07:40:31;;;;;;;19.52;11.88;;;;;;;-1.88;97.15;103001.22;5097194;28;20035;-80
2022/03/07 07:42:57;;;;;;;18.83;11.93;;;;;;;-1.75;97.05;102999.44;5097504;28;20063;-80
2022/03/07 07:45:22;;;;;;;19.92;12.13;;;;;;;-1.62;97.14;102990.69;5096296;28;20473;-80
2022/03/07 07:47:47;;;;;;;17.42;11.88;;;;;;;-1.47;96.57;103001.03;5078125;28;20107;-76
2022/03/07 07:50:13;;;;;;;16.83;11.95;;;;;;;-1.35;96.33;102999.25;5096566;28;20428;-81
2022/03/07 07:52:39;;;;;;;22.70;11.98;;;;;;;-1.19;96.06;103005.25;5097128;28;20085;-81
2022/03/07 07:55:05;;;;;;;17.10;11.30;;;;;;;-1.04;95.75;102997.28;5097123;28;20032;-79
2022/03/07 07:57:31;;;;;;;17.83;11.20;;;;;;;-0.91;94.80;102998.94;5095819;28;20099;-80
2022/03/07 07:59:56;;;;;;;18.77;11.60;;;;;;;-0.78;94.15;103004.91;5097035;28;20036;-82
2022/03/07 08:02:22;;;;;;;27.02;15.25;;;;;;;-0.61;93.09;103007.41;5096409;28;20388;-80
2022/03/07 08:04:47;;;;;;;18.88;11.85;;;;;;;-0.45;92.75;103013.38;5097038;28;20056;-80
2022/03/07 08:07:13;;;;;;;18.98;11.88;;;;;;;-0.32;92.22;103011.47;5096875;28;20028;-81
2022/03/07 08:09:38;;;;;;;18.38;11.73;;;;;;;-0.16;91.99;103012.19;5096765;28;20063;-82
2022/03/07 08:12:04;;;;;;;16.42;11.10;;;;;;;-0.01;90.83;103005.91;5096130;28;20039;-83
2022/03/07 08:14:30;;;;;;;17.45;11.55;;;;;;;0.13;89.77;103004.00;5080225;28;20032;-83
2022/03/07 08:16:55;;;;;;;17.42;11.13;;;;;;;0.28;89.13;103004.69;5096103;28;20044;-84
2022/03/07 08:19:21;;;;;;;17.10;11.90;;;;;;;0.43;88.62;103006.25;5096806;28;20413;-83
2022/03/07 08:21:46;;;;;;;15.00;10.55;;;;;;;0.57;87.37;103013.91;5097428;28;20087;-86
2022/03/07 08:24:11;;;;;;;14.98;11.15;;;;;;;0.75;86.65;103010.16;5078525;28;20032;-84
2022/03/07 08:26:38;;;;;;;19.65;10.93;;;;;;;0.93;85.57;103017.78;5096587;28;20038;-83
2022/03/07 08:29:04;;;;;;;17.88;10.68;;;;;;;1.07;83.17;103012.31;5079346;28;20044;-89
2022/03/07 08:31:30;;;;;;;14.60;10.23;;;;;;;1.31;83.78;103015.41;5078405;28;20414;-86
2022/03/07 08:33:55;;;;;;;17.33;10.68;;;;;;;1.54;83.58;103015.91;5097185;28;20031;-89
2022/03/07 08:36:21;;;;;;;14.07;10.52;;;;;;;1.79;81.70;103014.56;5078680;28;20032;-89
2022/03/07 08:38:46;;;;;;;15.00;10.40;;;;;;;2.07;79.14;103014.91;5098180;28;20053;-91
2022/03/07 08:41:12;;;;;;;14.63;10.07;;;;;;;2.24;74.77;103019.81;5080332;28;20480;-91
2022/03/07 08:43:37;;;;;;;14.90;10.38;;;;;;;2.74;72.61;103011.75;5080173;28;20032;-82
2022/03/07 08:46:02;;;;;;;13.88;9.90;;;;;;;3.01;71.46;103018.09;5078353;28;20039;-84
2022/03/07 08:48:29;;;;;;;13.88;9.63;;;;;;;3.16;69.56;103017.75;5078550;28;20035;-87
2022/03/07 08:50:55;;;;;;;17.90;9.57;;;;;;;3.15;68.78;103012.50;5095945;28;20385;-83
2022/03/07 08:53:21;;;;;;;15.60;10.27;;;;;;;3.36;67.28;103016.41;5095992;28;20494;-82
2022/03/07 08:55:46;;;;;;;14.15;9.38;;;;;;;3.55;66.48;103018.53;5095971;28;20039;-82
2022/03/07 08:58:12;;;;;;;13.30;8.52;;;;;;;4.01;64.00;103010.25;5096447;28;20079;-82
2022/03/07 09:00:37;;;;;;;10.10;7.93;;;;;;;4.74;62.51;103006.31;5062290;28;20039;-89
2022/03/07 09:03:06;;;;;;;8.82;7.88;;;;;;;5.82;57.75;103015.06;5096350;28;20062;-88
2022/03/07 09:05:32;;;;;;;9.57;7.45;;;;;;;7.13;53.35;103010.06;5095871;28;20380;-85
2022/03/07 09:07:57;;;;;;;9.32;7.38;;;;;;;8.71;48.83;103001.31;5094995;28;20028;-79
2022/03/07 09:10:23;;;;;;;8.82;6.90;;;;;;;9.87;43.97;103001.66;5077016;28;20431;-81
2022/03/07 09:12:49;;;;;;;8.48;6.15;;;;;;;10.68;42.04;103010.63;5077685;28;20032;-79
2022/03/07 09:15:14;;;;;;;9.75;6.50;;;;;;;11.88;37.84;103008.00;5096225;28;20044;-91
2022/03/07 09:17:41;;;;;;;18.33;5.50;;;;;;;12.56;36.55;103001.13;5097430;28;20024;-90
2022/03/07 09:20:08;;;;;;;7.57;5.97;;;;;;;13.18;34.10;102998.78;5096628;28;20040;-82
2022/03/07 09:22:34;;;;;;;8.77;5.80;;;;;;;13.26;33.70;102998.25;5078466;28;20036;-88
2022/03/07 09:25:00;;;;;;;7.43;5.68;;;;;;;12.02;34.64;102994.72;5096110;28;20151;-89
2022/03/07 09:27:25;;;;;;;12.95;5.53;;;;;;;11.77;35.50;102998.84;5096073;28;20028;-85
2022/03/07 09:29:51;;;;;;;7.35;5.90;;;;;;;11.99;34.05;103000.25;5095434;28;20048;-77
2022/03/07 09:32:16;;;;;;;10.00;5.90;;;;;;;12.09;35.38;102992.50;5094751;28;20036;-87
2022/03/07 09:34:42;;;;;;;9.32;5.30;;;;;;;12.01;34.73;102989.47;5095723;28;20067;-88
2022/03/07 09:37:07;;;;;;;7.90;5.50;;;;;;;12.08;34.75;102988.97;5094873;28;20400;-85
2022/03/07 09:39:34;;;;;;;9.10;5.70;;;;;;;12.44;33.73;102976.91;5076633;28;20081;-80
2022/03/07 09:41:59;;;;;;;5.53;4.53;;;;;;;12.45;33.61;102978.63;5095564;28;20479;-84
2022/03/07 09:44:27;;;;;;;7.15;4.95;;;;;;;12.80;31.53;102980.78;5077187;28;20028;-86
2022/03/07 09:46:55;;;;;;;7.57;4.82;;;;;;;11.59;34.02;102976.84;5095200;28;20456;-77
2022/03/07 09:49:21;;;;;;;5.78;4.40;;;;;;;12.01;34.23;102966.31;5077015;28;20459;-79
2022/03/07 09:51:46;;;;;;;5.50;4.45;;;;;;;13.07;32.54;102968.38;5094256;28;20032;-82
2022/03/07 09:54:12;;;;;;;8.00;5.00;;;;;;;13.52;31.04;102966.22;5094552;28;20465;-87
2022/03/07 09:56:37;;;;;;;5.00;4.18;;;;;;;13.43;32.02;102962.34;5095183;28;20488;-84
2022/03/07 09:59:03;;;;;;;6.65;4.50;;;;;;;14.56;29.70;102962.38;5095608;28;20107;-88
2022/03/07 10:01:29;;;;;;;7.03;4.75;;;;;;;14.15;29.11;102963.56;5095575;28;20400;-83
2022/03/07 10:04:07;;;;;;;6.85;4.82;;;;;;;12.75;31.99;102953.56;5094573;28;20392;-83
2022/03/07 10:06:32;;;;;;;9.82;5.05;;;;;;;12.78;32.45;102961.34;5076338;28;20024;-82
2022/03/07 10:09:00;;;;;;;7.35;4.70;;;;;;;12.97;31.83;102960.13;5095159;28;20040;-84
2022/03/07 10:11:29;;;;;;;5.45;4.88;;;;;;;13.33;31.21;102953.22;5076673;28;20123;-82
2022/03/07 10:14:01;;;;;;;6.28;4.68;;;;;;;13.24;31.34;102941.34;5095640;28;20036;-77
2022/03/07 10:16:43;;;;;;;7.88;4.85;;;;;;;12.80;32.91;102939.88;5096294;28;20028;-87
2022/03/07 10:19:12;;;;;;;6.75;4.50;;;;;;;13.70;30.96;102932.84;5094753;28;20413;-84
2022/03/07 10:21:45;;;;;;;6.35;5.20;;;;;;;12.81;32.14;102928.25;5094328;28;20032;-85
2022/03/07 10:24:11;;;;;;;5.43;4.45;;;;;;;13.84;30.24;102926.50;5094488;28;20042;-85
2022/03/07 10:26:36;;;;;;;9.73;5.18;;;;;;;13.79;29.95;102930.47;5093793;28;20032;-82
2022/03/07 10:29:04;;;;;;;9.25;5.18;;;;;;;12.89;30.13;102931.25;5093386;28;20067;-82
2022/03/07 10:31:32;;;;;;;7.40;4.60;;;;;;;13.62;29.38;102924.50;5093581;28;20044;-83
2022/03/07 10:34:02;;;;;;;5.72;4.72;;;;;;;12.47;30.13;102919.78;5093685;28;20044;-77
2022/03/07 10:36:36;;;;;;;9.05;4.68;;;;;;;13.14;31.84;102921.56;5094106;28;20031;-82
2022/03/07 10:39:07;;;;;;;5.88;4.88;;;;;;;12.96;31.86;102916.53;5093984;28;20045;-85
2022/03/07 10:41:41;;;;;;;5.88;4.90;;;;;;;13.47;31.19;102913.06;5093757;28;20050;-84
2022/03/07 10:44:22;;;;;;;7.63;5.20;;;;;;;13.63;31.64;102914.63;5076424;28;20526;-86
2022/03/07 10:47:16;;;;;;;6.65;5.05;;;;;;;14.17;29.55;102900.09;5094905;28;20111;-89
2022/03/07 10:49:53;;;;;;;9.10;5.38;;;;;;;14.29;29.57;102910.72;5091041;28;20504;-86
2022/03/07 10:52:20;;;;;;;7.57;4.82;;;;;;;13.93;30.20;102899.06;5076383;28;20028;-82
2022/03/07 10:54:49;;;;;;;7.25;5.25;;;;;;;14.18;31.14;102899.09;5075594;28;20035;-83
2022/03/07 10:57:17;;;;;;;7.70;5.35;;;;;;;14.31;30.37;102893.72;5093476;28;20033;-84
2022/03/07 10:59:42;;;;;;;6.50;5.03;;;;;;;13.61;31.70;102898.69;5094139;28;20081;-85
2022/03/07 11:02:14;;;;;;;6.70;5.20;;;;;;;14.11;31.05;102888.00;5075927;28;20032;-88
2022/03/07 11:04:45;;;;;;;8.68;5.35;;;;;;;14.19;31.29;102885.59;5078427;28;20433;-90
2022/03/07 11:07:12;;;;;;;9.38;5.63;;;;;;;13.72;31.66;102888.09;5100859;28;20029;-80
2022/03/07 11:09:39;;;;;;;6.57;5.50;;;;;;;13.22;30.75;102890.66;5096017;28;20028;-88
2022/03/07 11:12:09;;;;;;;7.68;5.57;;;;;;;12.21;33.55;102889.47;5076935;28;20365;-85